B Gas Master — 9HA2718 — position and weather

sailwx.info

Track history (hours):
 
Tides and Currents Weather Stations Pressure Air Temp Water Temp Dewpoint Dewpoint Depression Visibility Wind Speed Wind Dir Waves Ship Positions

B Gas Master

Last reported at 2017-Oct-19 00:59 UTC. Time now 2017-Oct-19 11:08 UTC.
Position N 49°15' W 004°52'.

Length 88 m; draft 6.3 m.

Type: Ship (hazmat cat C). MMSI: 215389000.

Date/timePositionNaut miles runAvg speedWind from/ knotsBaromVisibWave heightAir tempDewpointWater temp
2017-Oct-19 00:59N 49°15' W 004°52'2212.4
2017-Oct-18 23:10N 49°27' W 004°22'413.5
2017-Oct-18 22:54N 49°29' W 004°17'1113.6
2017-Oct-18 22:07N 49°34' W 004°03'613.4
2017-Oct-18 21:40N 49°37' W 003°55'713.3
2017-Oct-18 21:07N 49°41' W 003°46'113.1
2017-Oct-18 21:00N 49°41' W 003°44'712.8
2017-Oct-18 20:25N 49°45' W 003°34'512.2
2017-Oct-18 20:00N 49°47' W 003°27'611.6
2017-Oct-18 19:30N 49°50' W 003°19'611.2
2017-Oct-18 19:00N 49°53' W 003°11'510.9
2017-Oct-18 18:30N 49°56' W 003°04'510.7
2017-Oct-18 18:00N 49°59' W 002°57'510.7
2017-Oct-18 17:30N 50°00' W 002°49'9613.8
2017-Oct-18 10:32N 50°26' W 000°24'013.1
2017-Oct-18 10:30N 50°26' W 000°23'612.6
2017-Oct-18 10:00N 50°28' W 000°14'612.1
2017-Oct-18 09:31N 50°29' W 000°05'611.6
2017-Oct-18 09:01N 50°31' E 000°04'611.3
2017-Oct-18 08:30N 50°33' E 000°13'511.0
2017-Oct-18 08:00N 50°34' E 000°21'511.0
2017-Oct-18 07:30N 50°36' E 000°29'611.4
2017-Oct-18 07:00N 50°38' E 000°37'612.3
2017-Oct-18 06:30N 50°42' E 000°45'713.3
2017-Oct-18 06:00N 50°46' E 000°53'714.2
2017-Oct-18 05:31N 50°50' E 001°02'814.8
2017-Oct-18 05:00N 50°55' E 001°11'714.9
2017-Oct-18 04:30N 51°00' E 001°20'714.9
2017-Oct-18 04:01N 51°05' E 001°29'713.9
2017-Oct-18 03:30N 51°09' E 001°38'612.9
2017-Oct-18 03:01N 51°14' E 001°45'612.5
2017-Oct-18 02:31N 51°19' E 001°50'611.6
2017-Oct-18 02:01N 51°25' E 001°54'510.9
2017-Oct-18 01:31N 51°29' E 001°58'611.1
2017-Oct-18 01:00N 51°33' E 002°05'611.0
2017-Oct-18 00:30N 51°37' E 002°11'510.8
2017-Oct-18 00:00N 51°41' E 002°17'611.0
2017-Oct-17 23:30N 51°45' E 002°23'611.4
2017-Oct-17 23:00N 51°50' E 002°29'5 8.5
2017-Oct-17 22:27N 51°54' E 002°30'611.9
2017-Oct-17 21:58N 51°60' E 002°29'713.1
2017-Oct-17 21:27N 52°06' E 002°26'613.6
2017-Oct-17 20:59N 52°12' E 002°22'813.9
2017-Oct-17 20:23N 52°20' E 002°17'1714.3
2017-Oct-17 19:12N 52°36' E 002°07'714.7
2017-Oct-17 18:42N 52°42' E 002°02'413.9
2017-Oct-17 18:25N 52°46' E 001°59'614.9
2017-Oct-17 18:00N 52°49' E 001°50'814.6
2017-Oct-17 17:29N 52°52' E 001°39'714.9
2017-Oct-17 17:00N 52°58' E 001°32'714.1
2017-Oct-17 16:30N 53°04' E 001°26'713.6
2017-Oct-17 16:00N 53°10' E 001°20'713.5
2017-Oct-17 15:30N 53°16' E 001°14'4912.9
2017-Oct-17 11:41N 53°58' E 000°30'211.6
2017-Oct-17 11:30N 53°60' E 000°28'611.3
2017-Oct-17 11:00N 54°04' E 000°24'511.0
2017-Oct-17 10:30N 54°09' E 000°19'510.8
2017-Oct-17 10:00N 54°14' E 000°14'510.5
2017-Oct-17 09:30N 54°18' E 000°09'510.1
2017-Oct-17 09:00N 54°22' E 000°03'510.4
2017-Oct-17 08:30N 54°25' W 000°04'510.2
2017-Oct-17 08:00N 54°28' W 000°11'510.1
2017-Oct-17 07:30N 54°31' W 000°18'510.1
2017-Oct-17 07:00N 54°34' W 000°25'  
2017-Oct-13 18:14N 54°39' W 001°08'2 8.2
2017-Oct-13 18:00N 54°40' W 001°06'3 5.9
2017-Oct-13 17:30N 54°42' W 001°02'0 0.2
2017-Oct-13 17:00N 54°42' W 001°02'0 0.0
2017-Oct-13 16:30N 54°42' W 001°02'0 0.0
2017-Oct-13 16:00N 54°42' W 001°02'0 0.0
2017-Oct-13 15:30N 54°42' W 001°02'0 0.0
2017-Oct-13 15:00N 54°42' W 001°02'0 0.0
2017-Oct-13 14:30N 54°42' W 001°02'0 0.0
2017-Oct-13 14:00N 54°42' W 001°02'0 0.0
2017-Oct-13 13:30N 54°42' W 001°02'0 0.0
2017-Oct-13 13:00N 54°42' W 001°02'0 0.0
2017-Oct-13 12:30N 54°42' W 001°02'0 0.0
2017-Oct-13 12:00N 54°42' W 001°02'0 0.0
2017-Oct-13 11:30N 54°42' W 001°02'0 0.0
2017-Oct-13 11:00N 54°42' W 001°02'0 0.0
2017-Oct-13 10:30N 54°42' W 001°02'0 0.0
2017-Oct-13 10:00N 54°42' W 001°02'0 0.0
2017-Oct-13 09:30N 54°42' W 001°02'0 0.0
2017-Oct-13 09:00N 54°42' W 001°02'0 0.0
2017-Oct-13 08:30N 54°42' W 001°02'0 0.0
2017-Oct-13 08:00N 54°42' W 001°02'0 0.1
2017-Oct-13 07:30N 54°42' W 001°02'0 0.0
2017-Oct-13 07:00N 54°42' W 001°02'0 0.0
2017-Oct-13 06:30N 54°42' W 001°02'0 0.0
2017-Oct-13 06:00N 54°42' W 001°02'0 0.0
2017-Oct-13 05:30N 54°42' W 001°02'0 0.0
2017-Oct-13 05:00N 54°42' W 001°02'0 0.0
2017-Oct-13 04:30N 54°42' W 001°02'0 0.0
2017-Oct-13 04:00N 54°42' W 001°02'0 0.0
2017-Oct-13 03:30N 54°42' W 001°02'0 0.0
2017-Oct-13 03:00N 54°42' W 001°02'0 0.0
2017-Oct-13 02:30N 54°42' W 001°02'0 0.0
2017-Oct-13 02:00N 54°42' W 001°02'0 0.0
2017-Oct-13 01:30N 54°42' W 001°02'0 0.0
2017-Oct-13 00:59N 54°42' W 001°02'0 0.0
2017-Oct-13 00:30N 54°42' W 001°02'0 0.0
2017-Oct-13 00:00N 54°42' W 001°02'0 0.0
2017-Oct-12 23:30N 54°42' W 001°02'0 0.0
2017-Oct-12 23:00N 54°42' W 001°02'0 0.0
2017-Oct-12 22:30N 54°42' W 001°02'0 0.0
2017-Oct-12 22:00N 54°42' W 001°02'0 0.0
2017-Oct-12 21:30N 54°42' W 001°02'0 0.0
2017-Oct-12 20:58N 54°42' W 001°02'0 0.0
2017-Oct-12 20:30N 54°42' W 001°02'0 0.0
2017-Oct-12 20:00N 54°42' W 001°02'0 0.0
2017-Oct-12 19:30N 54°42' W 001°02'0 0.0
2017-Oct-12 18:58N 54°42' W 001°02'0 0.0
2017-Oct-12 18:30N 54°42' W 001°02'0 0.0
2017-Oct-12 17:57N 54°42' W 001°02'0 0.0
2017-Oct-12 17:29N 54°42' W 001°02'0 0.0
2017-Oct-12 17:00N 54°42' W 001°02'0 0.0
2017-Oct-12 16:30N 54°42' W 001°02'0 0.0
2017-Oct-12 16:00N 54°42' W 001°02'0 0.0
2017-Oct-12 15:29N 54°42' W 001°02'0 0.0
2017-Oct-12 14:59N 54°42' W 001°02'0 0.0
2017-Oct-12 14:30N 54°42' W 001°02'0 0.0
2017-Oct-12 13:57N 54°42' W 001°02'0 0.0
2017-Oct-12 13:30N 54°42' W 001°02'0 0.0
2017-Oct-12 13:00N 54°42' W 001°02'0 0.0
2017-Oct-12 12:29N 54°42' W 001°02'0 0.0
2017-Oct-12 12:00N 54°42' W 001°02'0 0.0
2017-Oct-12 11:29N 54°42' W 001°02'0 0.0
2017-Oct-12 11:00N 54°42' W 001°02'0 0.0
2017-Oct-12 10:30N 54°42' W 001°02'0 0.0
2017-Oct-12 10:00N 54°42' W 001°02'0 0.0
2017-Oct-12 09:30N 54°42' W 001°02'0 0.0
2017-Oct-12 09:00N 54°42' W 001°02'0 0.0
2017-Oct-12 08:30N 54°42' W 001°02'0 0.0
2017-Oct-12 07:53N 54°42' W 001°02'0 0.0
2017-Oct-12 07:25N 54°42' W 001°02'0 0.0
2017-Oct-12 06:56N 54°42' W 001°02'0 0.0
2017-Oct-12 06:29N 54°42' W 001°02'0 0.0
2017-Oct-12 06:00N 54°42' W 001°02'0 0.0
2017-Oct-12 05:30N 54°42' W 001°02'0 0.0
2017-Oct-12 05:00N 54°42' W 001°02'0 0.0
2017-Oct-12 04:30N 54°42' W 001°02'0 0.0
2017-Oct-12 04:00N 54°42' W 001°02'0 0.0
2017-Oct-12 03:25N 54°42' W 001°02'0 0.0
2017-Oct-12 03:00N 54°42' W 001°02'0 0.0
2017-Oct-12 02:30N 54°42' W 001°02'0 0.0
2017-Oct-12 02:00N 54°42' W 001°02'0 0.0
2017-Oct-12 01:30N 54°42' W 001°02'0 0.0
2017-Oct-12 01:00N 54°42' W 001°02'0 0.0
2017-Oct-12 00:30N 54°42' W 001°02'0 0.0
2017-Oct-11 23:59N 54°42' W 001°02'0 0.0
2017-Oct-11 23:30N 54°42' W 001°02'0 0.0
2017-Oct-11 23:00N 54°42' W 001°02'0 0.0
2017-Oct-11 22:28N 54°42' W 001°02'0 0.0
2017-Oct-11 22:00N 54°42' W 001°02'0 0.1
2017-Oct-11 21:27N 54°42' W 001°02'0 0.0
2017-Oct-11 21:00N 54°42' W 001°02'0 0.0
2017-Oct-11 20:07N 54°42' W 001°02'0 0.1
2017-Oct-11 20:00N 54°42' W 001°02'0 0.0
2017-Oct-11 19:30N 54°42' W 001°02'0 0.0
2017-Oct-11 19:00N 54°42' W 001°02'0 0.0
2017-Oct-11 18:29N 54°42' W 001°02'0 0.0
2017-Oct-11 17:25N 54°42' W 001°02'0 0.2
2017-Oct-11 17:00N 54°42' W 001°02'19311.3
2017-Oct-11 00:00N 51°59' E 001°50'510.7
2017-Oct-10 23:30N 51°54' E 001°48'511.0
2017-Oct-10 23:00N 51°48' E 001°48'711.5
2017-Oct-10 22:22N 51°41' E 001°49'411.8
2017-Oct-10 22:00N 51°36' E 001°49'612.2
2017-Oct-10 21:30N 51°31' E 001°47'612.3
2017-Oct-10 21:00N 51°25' E 001°45'612.6
2017-Oct-10 20:30N 51°19' E 001°41'612.8
2017-Oct-10 20:00N 51°13' E 001°37'510.8
2017-Oct-10 19:30N 51°08' E 001°40'611.6
2017-Oct-10 19:00N 51°03' E 001°35'713.4
2017-Oct-10 18:30N 50°58' E 001°27'713.3
2017-Oct-10 18:00N 50°51' E 001°24'5712.5
2017-Oct-10 13:29N 50°19' E 000°11'714.2
2017-Oct-10 12:59N 50°16' E 000°01'2613.4
2017-Oct-10 11:04N 49°51' W 000°06'113.7
2017-Oct-10 11:00N 49°50' W 000°07'713.4
2017-Oct-10 10:30N 49°43' W 000°08'713.1
2017-Oct-10 10:00N 49°37' W 000°10'510.3
2017-Oct-10 09:30N 49°32' W 000°08'5 9.3
2017-Oct-10 09:00N 49°30' W 000°02'0 0.8
2017-Oct-10 08:31N 49°29' W 000°01'0 0.0
2017-Oct-10 08:01N 49°29' W 000°01'0 0.0
2017-Oct-10 07:27N 49°29' W 000°01'0 0.1
2017-Oct-10 07:00N 49°29' W 000°01'0 0.2
2017-Oct-10 06:31N 49°29' W 000°02'0 0.0
2017-Oct-10 05:58N 49°29' W 000°02'0 0.0
2017-Oct-10 05:31N 49°29' W 000°02'0 0.0
2017-Oct-10 05:00N 49°29' W 000°02'0 0.1
2017-Oct-10 04:28N 49°29' W 000°01'0 0.0
2017-Oct-10 03:58N 49°29' W 000°01'0 0.0
2017-Oct-10 03:31N 49°29' W 000°01'0 0.1
2017-Oct-10 03:01N 49°29' W 000°01'0 0.0
2017-Oct-10 02:31N 49°29' W 000°01'0 0.0
2017-Oct-10 02:01N 49°29' W 000°01'0 0.0
2017-Oct-10 01:31N 49°29' W 000°01'0 0.0
2017-Oct-10 00:57N 49°29' W 000°01'0 0.0
2017-Oct-10 00:28N 49°29' W 000°01'0 0.0
2017-Oct-09 23:58N 49°29' W 000°01'0 0.0
2017-Oct-09 23:30N 49°29' W 000°01'0 0.0
2017-Oct-09 22:58N 49°29' W 000°01'0 0.0
2017-Oct-09 22:31N 49°29' W 000°01'0 0.1
2017-Oct-09 21:58N 49°29' W 000°01'0 0.0
2017-Oct-09 21:27N 49°29' W 000°01'0 0.0
2017-Oct-09 20:58N 49°29' W 000°01'0 0.0
2017-Oct-09 20:30N 49°29' W 000°01'0 0.0
2017-Oct-09 20:01N 49°29' W 000°01'0 0.0
2017-Oct-09 19:31N 49°29' W 000°01'0 0.0
2017-Oct-09 19:01N 49°29' W 000°01'0 0.2
2017-Oct-09 18:31N 49°29' W 000°02'0 0.1
2017-Oct-09 18:01N 49°29' W 000°02'0 0.0
2017-Oct-09 17:30N 49°29' W 000°02'0 0.0
2017-Oct-09 16:58N 49°29' W 000°02'0 0.0
2017-Oct-09 16:31N 49°29' W 000°02'0 0.1
2017-Oct-09 16:01N 49°29' W 000°02'0 0.0
2017-Oct-09 15:31N 49°29' W 000°02'0 0.0
2017-Oct-09 15:01N 49°29' W 000°02'0 0.0
2017-Oct-09 14:28N 49°29' W 000°02'0 0.0
2017-Oct-09 14:00N 49°29' W 000°01'0 0.0
2017-Oct-09 13:30N 49°29' W 000°01'0 0.0
2017-Oct-09 13:01N 49°29' W 000°01'0 0.0
2017-Oct-09 12:28N 49°29' W 000°01'0 0.0
2017-Oct-09 12:00N 49°29' W 000°01'0 0.0
2017-Oct-09 11:31N 49°29' W 000°01'0 0.0
2017-Oct-09 11:01N 49°29' W 000°01'0 0.0
2017-Oct-09 10:30N 49°29' W 000°01'0 0.0
2017-Oct-09 10:01N 49°29' W 000°01'0 0.1
2017-Oct-09 09:28N 49°29' W 000°01'0 0.1
2017-Oct-09 09:01N 49°29' W 000°01'0 0.0
2017-Oct-09 08:31N 49°29' W 000°01'0 0.0
2017-Oct-09 08:01N 49°29' W 000°01'0 0.1
2017-Oct-09 07:28N 49°29' W 000°02'0 0.1
2017-Oct-09 07:01N 49°29' W 000°02'0 0.0
2017-Oct-09 06:28N 49°29' W 000°02'0 0.0
2017-Oct-09 06:01N 49°29' W 000°02'0 0.0
2017-Oct-09 05:30N 49°29' W 000°02'0 0.0
2017-Oct-09 05:00N 49°29' W 000°02'0 0.0
2017-Oct-09 04:31N 49°29' W 000°02'0 0.0
2017-Oct-09 04:01N 49°29' W 000°02'0 0.0
2017-Oct-09 03:31N 49°29' W 000°02'0 0.0
2017-Oct-09 03:00N 49°29' W 000°02'0 0.0
2017-Oct-09 02:28N 49°29' W 000°02'0 0.1
2017-Oct-09 02:01N 49°29' W 000°01'0 0.1
2017-Oct-09 01:31N 49°29' W 000°01'0 0.0
2017-Oct-09 01:01N 49°29' W 000°01'  
Track history (hours):
 
Tides and Currents Weather Stations Pressure Air Temp Water Temp Dewpoint Dewpoint Depression Visibility Wind Speed Wind Dir Waves Ship Positions

B Gas Master

Last reported at 2017-Oct-19 00:59 UTC. Time now 2017-Oct-19 11:08 UTC.
Position N 49°15' W 004°52'.

Length 88 m; draft 6.3 m.

Type: Ship (hazmat cat C). MMSI: 215389000.

Date/timePositionNaut miles runAvg speedWind from/ knotsBaromVisibWave heightAir tempDewpointWater temp
2017-Oct-19 00:59N 49°15' W 004°52'2212.4
2017-Oct-18 23:10N 49°27' W 004°22'413.5
2017-Oct-18 22:54N 49°29' W 004°17'1113.6
2017-Oct-18 22:07N 49°34' W 004°03'613.4
2017-Oct-18 21:40N 49°37' W 003°55'713.3
2017-Oct-18 21:07N 49°41' W 003°46'113.1
2017-Oct-18 21:00N 49°41' W 003°44'712.8
2017-Oct-18 20:25N 49°45' W 003°34'512.2
2017-Oct-18 20:00N 49°47' W 003°27'611.6
2017-Oct-18 19:30N 49°50' W 003°19'611.2
2017-Oct-18 19:00N 49°53' W 003°11'510.9
2017-Oct-18 18:30N 49°56' W 003°04'510.7
2017-Oct-18 18:00N 49°59' W 002°57'510.7
2017-Oct-18 17:30N 50°00' W 002°49'9613.8
2017-Oct-18 10:32N 50°26' W 000°24'013.1
2017-Oct-18 10:30N 50°26' W 000°23'612.6
2017-Oct-18 10:00N 50°28' W 000°14'612.1
2017-Oct-18 09:31N 50°29' W 000°05'611.6
2017-Oct-18 09:01N 50°31' E 000°04'611.3
2017-Oct-18 08:30N 50°33' E 000°13'511.0
2017-Oct-18 08:00N 50°34' E 000°21'511.0
2017-Oct-18 07:30N 50°36' E 000°29'611.4
2017-Oct-18 07:00N 50°38' E 000°37'612.3
2017-Oct-18 06:30N 50°42' E 000°45'713.3
2017-Oct-18 06:00N 50°46' E 000°53'714.2
2017-Oct-18 05:31N 50°50' E 001°02'814.8
2017-Oct-18 05:00N 50°55' E 001°11'714.9
2017-Oct-18 04:30N 51°00' E 001°20'714.9
2017-Oct-18 04:01N 51°05' E 001°29'713.9
2017-Oct-18 03:30N 51°09' E 001°38'612.9
2017-Oct-18 03:01N 51°14' E 001°45'612.5
2017-Oct-18 02:31N 51°19' E 001°50'611.6
2017-Oct-18 02:01N 51°25' E 001°54'510.9
2017-Oct-18 01:31N 51°29' E 001°58'611.1
2017-Oct-18 01:00N 51°33' E 002°05'611.0
2017-Oct-18 00:30N 51°37' E 002°11'510.8
2017-Oct-18 00:00N 51°41' E 002°17'611.0
2017-Oct-17 23:30N 51°45' E 002°23'611.4
2017-Oct-17 23:00N 51°50' E 002°29'5 8.5
2017-Oct-17 22:27N 51°54' E 002°30'611.9
2017-Oct-17 21:58N 51°60' E 002°29'713.1
2017-Oct-17 21:27N 52°06' E 002°26'613.6
2017-Oct-17 20:59N 52°12' E 002°22'813.9
2017-Oct-17 20:23N 52°20' E 002°17'1714.3
2017-Oct-17 19:12N 52°36' E 002°07'714.7
2017-Oct-17 18:42N 52°42' E 002°02'413.9
2017-Oct-17 18:25N 52°46' E 001°59'614.9
2017-Oct-17 18:00N 52°49' E 001°50'814.6
2017-Oct-17 17:29N 52°52' E 001°39'714.9
2017-Oct-17 17:00N 52°58' E 001°32'714.1
2017-Oct-17 16:30N 53°04' E 001°26'713.6
2017-Oct-17 16:00N 53°10' E 001°20'713.5
2017-Oct-17 15:30N 53°16' E 001°14'4912.9
2017-Oct-17 11:41N 53°58' E 000°30'211.6
2017-Oct-17 11:30N 53°60' E 000°28'611.3
2017-Oct-17 11:00N 54°04' E 000°24'511.0
2017-Oct-17 10:30N 54°09' E 000°19'510.8
2017-Oct-17 10:00N 54°14' E 000°14'510.5
2017-Oct-17 09:30N 54°18' E 000°09'510.1
2017-Oct-17 09:00N 54°22' E 000°03'510.4
2017-Oct-17 08:30N 54°25' W 000°04'510.2
2017-Oct-17 08:00N 54°28' W 000°11'510.1
2017-Oct-17 07:30N 54°31' W 000°18'510.1
2017-Oct-17 07:00N 54°34' W 000°25'  
2017-Oct-13 18:14N 54°39' W 001°08'2 8.2
2017-Oct-13 18:00N 54°40' W 001°06'3 5.9
2017-Oct-13 17:30N 54°42' W 001°02'0 0.2
2017-Oct-13 17:00N 54°42' W 001°02'0 0.0
2017-Oct-13 16:30N 54°42' W 001°02'0 0.0
2017-Oct-13 16:00N 54°42' W 001°02'0 0.0
2017-Oct-13 15:30N 54°42' W 001°02'0 0.0
2017-Oct-13 15:00N 54°42' W 001°02'0 0.0
2017-Oct-13 14:30N 54°42' W 001°02'0 0.0
2017-Oct-13 14:00N 54°42' W 001°02'0 0.0
2017-Oct-13 13:30N 54°42' W 001°02'0 0.0
2017-Oct-13 13:00N 54°42' W 001°02'0 0.0
2017-Oct-13 12:30N 54°42' W 001°02'0 0.0
2017-Oct-13 12:00N 54°42' W 001°02'0 0.0
2017-Oct-13 11:30N 54°42' W 001°02'0 0.0
2017-Oct-13 11:00N 54°42' W 001°02'0 0.0
2017-Oct-13 10:30N 54°42' W 001°02'0 0.0
2017-Oct-13 10:00N 54°42' W 001°02'0 0.0
2017-Oct-13 09:30N 54°42' W 001°02'0 0.0
2017-Oct-13 09:00N 54°42' W 001°02'0 0.0
2017-Oct-13 08:30N 54°42' W 001°02'0 0.0
2017-Oct-13 08:00N 54°42' W 001°02'0 0.1
2017-Oct-13 07:30N 54°42' W 001°02'0 0.0
2017-Oct-13 07:00N 54°42' W 001°02'0 0.0
2017-Oct-13 06:30N 54°42' W 001°02'0 0.0
2017-Oct-13 06:00N 54°42' W 001°02'0 0.0
2017-Oct-13 05:30N 54°42' W 001°02'0 0.0
2017-Oct-13 05:00N 54°42' W 001°02'0 0.0
2017-Oct-13 04:30N 54°42' W 001°02'0 0.0
2017-Oct-13 04:00N 54°42' W 001°02'0 0.0
2017-Oct-13 03:30N 54°42' W 001°02'0 0.0
2017-Oct-13 03:00N 54°42' W 001°02'0 0.0
2017-Oct-13 02:30N 54°42' W 001°02'0 0.0
2017-Oct-13 02:00N 54°42' W 001°02'0 0.0
2017-Oct-13 01:30N 54°42' W 001°02'0 0.0
2017-Oct-13 00:59N 54°42' W 001°02'0 0.0
2017-Oct-13 00:30N 54°42' W 001°02'0 0.0
2017-Oct-13 00:00N 54°42' W 001°02'0 0.0
2017-Oct-12 23:30N 54°42' W 001°02'0 0.0
2017-Oct-12 23:00N 54°42' W 001°02'0 0.0
2017-Oct-12 22:30N 54°42' W 001°02'0 0.0
2017-Oct-12 22:00N 54°42' W 001°02'0 0.0
2017-Oct-12 21:30N 54°42' W 001°02'0 0.0
2017-Oct-12 20:58N 54°42' W 001°02'0 0.0
2017-Oct-12 20:30N 54°42' W 001°02'0 0.0
2017-Oct-12 20:00N 54°42' W 001°02'0 0.0
2017-Oct-12 19:30N 54°42' W 001°02'0 0.0
2017-Oct-12 18:58N 54°42' W 001°02'0 0.0
2017-Oct-12 18:30N 54°42' W 001°02'0 0.0
2017-Oct-12 17:57N 54°42' W 001°02'0 0.0
2017-Oct-12 17:29N 54°42' W 001°02'0 0.0
2017-Oct-12 17:00N 54°42' W 001°02'0 0.0
2017-Oct-12 16:30N 54°42' W 001°02'0 0.0
2017-Oct-12 16:00N 54°42' W 001°02'0 0.0
2017-Oct-12 15:29N 54°42' W 001°02'0 0.0
2017-Oct-12 14:59N 54°42' W 001°02'0 0.0
2017-Oct-12 14:30N 54°42' W 001°02'0 0.0
2017-Oct-12 13:57N 54°42' W 001°02'0 0.0
2017-Oct-12 13:30N 54°42' W 001°02'0 0.0
2017-Oct-12 13:00N 54°42' W 001°02'0 0.0
2017-Oct-12 12:29N 54°42' W 001°02'0 0.0
2017-Oct-12 12:00N 54°42' W 001°02'0 0.0
2017-Oct-12 11:29N 54°42' W 001°02'0 0.0
2017-Oct-12 11:00N 54°42' W 001°02'0 0.0
2017-Oct-12 10:30N 54°42' W 001°02'0 0.0
2017-Oct-12 10:00N 54°42' W 001°02'0 0.0
2017-Oct-12 09:30N 54°42' W 001°02'0 0.0
2017-Oct-12 09:00N 54°42' W 001°02'0 0.0
2017-Oct-12 08:30N 54°42' W 001°02'0 0.0
2017-Oct-12 07:53N 54°42' W 001°02'0 0.0
2017-Oct-12 07:25N 54°42' W 001°02'0 0.0
2017-Oct-12 06:56N 54°42' W 001°02'0 0.0
2017-Oct-12 06:29N 54°42' W 001°02'0 0.0
2017-Oct-12 06:00N 54°42' W 001°02'0 0.0
2017-Oct-12 05:30N 54°42' W 001°02'0 0.0
2017-Oct-12 05:00N 54°42' W 001°02'0 0.0
2017-Oct-12 04:30N 54°42' W 001°02'0 0.0
2017-Oct-12 04:00N 54°42' W 001°02'0 0.0
2017-Oct-12 03:25N 54°42' W 001°02'0 0.0
2017-Oct-12 03:00N 54°42' W 001°02'0 0.0
2017-Oct-12 02:30N 54°42' W 001°02'0 0.0
2017-Oct-12 02:00N 54°42' W 001°02'0 0.0
2017-Oct-12 01:30N 54°42' W 001°02'0 0.0
2017-Oct-12 01:00N 54°42' W 001°02'0 0.0
2017-Oct-12 00:30N 54°42' W 001°02'0 0.0
2017-Oct-11 23:59N 54°42' W 001°02'0 0.0
2017-Oct-11 23:30N 54°42' W 001°02'0 0.0
2017-Oct-11 23:00N 54°42' W 001°02'0 0.0
2017-Oct-11 22:28N 54°42' W 001°02'0 0.0
2017-Oct-11 22:00N 54°42' W 001°02'0 0.1
2017-Oct-11 21:27N 54°42' W 001°02'0 0.0
2017-Oct-11 21:00N 54°42' W 001°02'0 0.0
2017-Oct-11 20:07N 54°42' W 001°02'0 0.1
2017-Oct-11 20:00N 54°42' W 001°02'0 0.0
2017-Oct-11 19:30N 54°42' W 001°02'0 0.0
2017-Oct-11 19:00N 54°42' W 001°02'0 0.0
2017-Oct-11 18:29N 54°42' W 001°02'0 0.0
2017-Oct-11 17:25N 54°42' W 001°02'0 0.2
2017-Oct-11 17:00N 54°42' W 001°02'19311.3
2017-Oct-11 00:00N 51°59' E 001°50'510.7
2017-Oct-10 23:30N 51°54' E 001°48'511.0
2017-Oct-10 23:00N 51°48' E 001°48'711.5
2017-Oct-10 22:22N 51°41' E 001°49'411.8
2017-Oct-10 22:00N 51°36' E 001°49'612.2
2017-Oct-10 21:30N 51°31' E 001°47'612.3
2017-Oct-10 21:00N 51°25' E 001°45'612.6
2017-Oct-10 20:30N 51°19' E 001°41'612.8
2017-Oct-10 20:00N 51°13' E 001°37'510.8
2017-Oct-10 19:30N 51°08' E 001°40'611.6
2017-Oct-10 19:00N 51°03' E 001°35'713.4
2017-Oct-10 18:30N 50°58' E 001°27'713.3
2017-Oct-10 18:00N 50°51' E 001°24'5712.5
2017-Oct-10 13:29N 50°19' E 000°11'714.2
2017-Oct-10 12:59N 50°16' E 000°01'2613.4
2017-Oct-10 11:04N 49°51' W 000°06'113.7
2017-Oct-10 11:00N 49°50' W 000°07'713.4
2017-Oct-10 10:30N 49°43' W 000°08'713.1
2017-Oct-10 10:00N 49°37' W 000°10'510.3
2017-Oct-10 09:30N 49°32' W 000°08'5 9.3
2017-Oct-10 09:00N 49°30' W 000°02'0 0.8
2017-Oct-10 08:31N 49°29' W 000°01'0 0.0
2017-Oct-10 08:01N 49°29' W 000°01'0 0.0
2017-Oct-10 07:27N 49°29' W 000°01'0 0.1
2017-Oct-10 07:00N 49°29' W 000°01'0 0.2
2017-Oct-10 06:31N 49°29' W 000°02'0 0.0
2017-Oct-10 05:58N 49°29' W 000°02'0 0.0
2017-Oct-10 05:31N 49°29' W 000°02'0 0.0
2017-Oct-10 05:00N 49°29' W 000°02'0 0.1
2017-Oct-10 04:28N 49°29' W 000°01'0 0.0
2017-Oct-10 03:58N 49°29' W 000°01'0 0.0
2017-Oct-10 03:31N 49°29' W 000°01'0 0.1
2017-Oct-10 03:01N 49°29' W 000°01'0 0.0
2017-Oct-10 02:31N 49°29' W 000°01'0 0.0
2017-Oct-10 02:01N 49°29' W 000°01'0 0.0
2017-Oct-10 01:31N 49°29' W 000°01'0 0.0
2017-Oct-10 00:57N 49°29' W 000°01'0 0.0
2017-Oct-10 00:28N 49°29' W 000°01'0 0.0
2017-Oct-09 23:58N 49°29' W 000°01'0 0.0
2017-Oct-09 23:30N 49°29' W 000°01'0 0.0
2017-Oct-09 22:58N 49°29' W 000°01'0 0.0
2017-Oct-09 22:31N 49°29' W 000°01'0 0.1
2017-Oct-09 21:58N 49°29' W 000°01'0 0.0
2017-Oct-09 21:27N 49°29' W 000°01'0 0.0
2017-Oct-09 20:58N 49°29' W 000°01'0 0.0
2017-Oct-09 20:30N 49°29' W 000°01'0 0.0
2017-Oct-09 20:01N 49°29' W 000°01'0 0.0
2017-Oct-09 19:31N 49°29' W 000°01'0 0.0
2017-Oct-09 19:01N 49°29' W 000°01'0 0.2
2017-Oct-09 18:31N 49°29' W 000°02'0 0.1
2017-Oct-09 18:01N 49°29' W 000°02'0 0.0
2017-Oct-09 17:30N 49°29' W 000°02'0 0.0
2017-Oct-09 16:58N 49°29' W 000°02'0 0.0
2017-Oct-09 16:31N 49°29' W 000°02'0 0.1
2017-Oct-09 16:01N 49°29' W 000°02'0 0.0
2017-Oct-09 15:31N 49°29' W 000°02'0 0.0
2017-Oct-09 15:01N 49°29' W 000°02'0 0.0
2017-Oct-09 14:28N 49°29' W 000°02'0 0.0
2017-Oct-09 14:00N 49°29' W 000°01'0 0.0
2017-Oct-09 13:30N 49°29' W 000°01'0 0.0
2017-Oct-09 13:01N 49°29' W 000°01'0 0.0
2017-Oct-09 12:28N 49°29' W 000°01'0 0.0
2017-Oct-09 12:00N 49°29' W 000°01'0 0.0
2017-Oct-09 11:31N 49°29' W 000°01'0 0.0
2017-Oct-09 11:01N 49°29' W 000°01'0 0.0
2017-Oct-09 10:30N 49°29' W 000°01'0 0.0
2017-Oct-09 10:01N 49°29' W 000°01'0 0.1
2017-Oct-09 09:28N 49°29' W 000°01'0 0.1
2017-Oct-09 09:01N 49°29' W 000°01'0 0.0
2017-Oct-09 08:31N 49°29' W 000°01'0 0.0
2017-Oct-09 08:01N 49°29' W 000°01'0 0.1
2017-Oct-09 07:28N 49°29' W 000°02'0 0.1
2017-Oct-09 07:01N 49°29' W 000°02'0 0.0
2017-Oct-09 06:28N 49°29' W 000°02'0 0.0
2017-Oct-09 06:01N 49°29' W 000°02'0 0.0
2017-Oct-09 05:30N 49°29' W 000°02'0 0.0
2017-Oct-09 05:00N 49°29' W 000°02'0 0.0
2017-Oct-09 04:31N 49°29' W 000°02'0 0.0
2017-Oct-09 04:01N 49°29' W 000°02'0 0.0
2017-Oct-09 03:31N 49°29' W 000°02'0 0.0
2017-Oct-09 03:00N 49°29' W 000°02'0 0.0
2017-Oct-09 02:28N 49°29' W 000°02'0 0.1
2017-Oct-09 02:01N 49°29' W 000°01'0 0.1
2017-Oct-09 01:31N 49°29' W 000°01'0 0.0
2017-Oct-09 01:01N 49°29' W 000°01'  

Dump ship's entire track history